sensor_id;sensor_type;location;lat;lon;timestamp;pressure;altitude;pressure_sealevel;temperature;humidity
21395;BME280;10858;42.714;23.180;2023-04-08T00:01:54;94470.47;;;5.85;71.64
21395;BME280;10858;42.714;23.180;2023-04-08T00:04:20;94470.34;;;5.86;71.39
21395;BME280;10858;42.714;23.180;2023-04-08T00:06:46;94463.31;;;5.87;71.43
21395;BME280;10858;42.714;23.180;2023-04-08T00:09:13;94466.41;;;5.67;72.20
21395;BME280;10858;42.714;23.180;2023-04-08T00:11:39;94459.25;;;5.56;73.06
21395;BME280;10858;42.714;23.180;2023-04-08T00:14:05;94465.97;;;5.48;73.50
21395;BME280;10858;42.714;23.180;2023-04-08T00:16:32;94467.22;;;5.42;73.51
21395;BME280;10858;42.714;23.180;2023-04-08T00:18:58;94469.88;;;5.67;72.85
21395;BME280;10858;42.714;23.180;2023-04-08T00:21:24;94470.50;;;5.58;72.38
21395;BME280;10858;42.714;23.180;2023-04-08T00:23:52;94452.81;;;5.48;73.23
21395;BME280;10858;42.714;23.180;2023-04-08T00:26:19;94455.00;;;5.41;73.39
21395;BME280;10858;42.714;23.180;2023-04-08T00:28:45;94455.75;;;5.31;73.40
21395;BME280;10858;42.714;23.180;2023-04-08T00:31:11;94455.59;;;5.19;74.21
21395;BME280;10858;42.714;23.180;2023-04-08T00:33:37;94453.72;;;5.22;74.24
21395;BME280;10858;42.714;23.180;2023-04-08T00:36:04;94456.56;;;5.18;73.98
21395;BME280;10858;42.714;23.180;2023-04-08T00:38:30;94448.66;;;5.18;73.76
21395;BME280;10858;42.714;23.180;2023-04-08T00:40:56;94456.75;;;5.15;73.44
21395;BME280;10858;42.714;23.180;2023-04-08T00:43:23;94457.59;;;5.16;74.23
21395;BME280;10858;42.714;23.180;2023-04-08T00:45:49;94459.94;;;5.33;73.70
21395;BME280;10858;42.714;23.180;2023-04-08T00:48:16;94459.53;;;5.27;73.77
21395;BME280;10858;42.714;23.180;2023-04-08T00:50:45;94463.41;;;5.34;73.75
21395;BME280;10858;42.714;23.180;2023-04-08T00:53:14;94462.69;;;5.44;73.54
21395;BME280;10858;42.714;23.180;2023-04-08T00:55:42;94461.13;;;5.42;73.33
21395;BME280;10858;42.714;23.180;2023-04-08T00:58:08;94459.44;;;5.41;72.91
21395;BME280;10858;42.714;23.180;2023-04-08T01:00:36;94455.25;;;5.51;72.71
21395;BME280;10858;42.714;23.180;2023-04-08T01:05:53;94465.78;;;5.51;72.98
21395;BME280;10858;42.714;23.180;2023-04-08T01:08:22;94464.81;;;5.64;72.40
21395;BME280;10858;42.714;23.180;2023-04-08T01:10:53;94460.72;;;5.60;72.37
21395;BME280;10858;42.714;23.180;2023-04-08T01:13:24;94461.75;;;5.58;72.29
21395;BME280;10858;42.714;23.180;2023-04-08T01:15:51;94466.91;;;5.47;72.90
21395;BME280;10858;42.714;23.180;2023-04-08T01:18:20;94476.47;;;5.48;73.10
21395;BME280;10858;42.714;23.180;2023-04-08T01:20:47;94472.69;;;5.52;72.72
21395;BME280;10858;42.714;23.180;2023-04-08T01:26:06;94470.72;;;5.68;72.52
21395;BME280;10858;42.714;23.180;2023-04-08T01:28:33;94472.81;;;5.50;73.25
21395;BME280;10858;42.714;23.180;2023-04-08T01:31:01;94470.81;;;5.54;73.27
21395;BME280;10858;42.714;23.180;2023-04-08T01:33:29;94475.56;;;5.74;72.38
21395;BME280;10858;42.714;23.180;2023-04-08T01:35:57;94476.72;;;5.70;71.91
21395;BME280;10858;42.714;23.180;2023-04-08T01:38:25;94473.78;;;5.62;72.32
21395;BME280;10858;42.714;23.180;2023-04-08T01:40:53;94476.84;;;5.68;72.20
21395;BME280;10858;42.714;23.180;2023-04-08T01:43:21;94478.50;;;5.69;71.83
21395;BME280;10858;42.714;23.180;2023-04-08T01:45:48;94472.09;;;5.61;72.30
21395;BME280;10858;42.714;23.180;2023-04-08T01:48:15;94481.34;;;5.54;72.59
21395;BME280;10858;42.714;23.180;2023-04-08T01:50:43;94483.66;;;5.58;72.58
21395;BME280;10858;42.714;23.180;2023-04-08T01:53:10;94487.47;;;5.67;72.19
21395;BME280;10858;42.714;23.180;2023-04-08T01:55:38;94483.78;;;5.57;72.87
21395;BME280;10858;42.714;23.180;2023-04-08T01:58:08;94494.44;;;5.41;73.30
21395;BME280;10858;42.714;23.180;2023-04-08T02:00:39;94496.25;;;5.41;73.44
21395;BME280;10858;42.714;23.180;2023-04-08T02:03:06;94499.81;;;5.40;73.99
21395;BME280;10858;42.714;23.180;2023-04-08T02:05:33;94498.16;;;5.39;73.79
21395;BME280;10858;42.714;23.180;2023-04-08T02:07:59;94509.03;;;5.20;74.69
21395;BME280;10858;42.714;23.180;2023-04-08T02:10:26;94504.91;;;5.16;75.24
21395;BME280;10858;42.714;23.180;2023-04-08T02:12:52;94505.16;;;5.26;74.76
21395;BME280;10858;42.714;23.180;2023-04-08T02:15:19;94504.47;;;5.09;74.53
21395;BME280;10858;42.714;23.180;2023-04-08T02:17:52;94514.47;;;5.04;75.08
21395;BME280;10858;42.714;23.180;2023-04-08T02:20:42;94510.63;;;5.23;75.01
21395;BME280;10858;42.714;23.180;2023-04-08T02:25:43;94510.72;;;5.21;74.81
21395;BME280;10858;42.714;23.180;2023-04-08T02:28:11;94515.38;;;5.30;74.29
21395;BME280;10858;42.714;23.180;2023-04-08T02:30:41;94504.50;;;5.49;74.03
21395;BME280;10858;42.714;23.180;2023-04-08T02:33:08;94502.25;;;5.43;73.40
21395;BME280;10858;42.714;23.180;2023-04-08T02:35:35;94503.94;;;5.44;73.81
21395;BME280;10858;42.714;23.180;2023-04-08T02:38:07;94510.16;;;5.55;73.40
21395;BME280;10858;42.714;23.180;2023-04-08T02:40:34;94503.19;;;5.42;73.57
21395;BME280;10858;42.714;23.180;2023-04-08T02:43:03;94507.84;;;5.11;74.96
21395;BME280;10858;42.714;23.180;2023-04-08T02:45:39;94511.66;;;5.20;74.72
21395;BME280;10858;42.714;23.180;2023-04-08T02:48:06;94498.81;;;5.55;73.51
21395;BME280;10858;42.714;23.180;2023-04-08T02:50:32;94494.94;;;5.60;72.86
21395;BME280;10858;42.714;23.180;2023-04-08T02:52:58;94499.22;;;5.49;73.39
21395;BME280;10858;42.714;23.180;2023-04-08T02:55:25;94498.97;;;5.39;73.55
21395;BME280;10858;42.714;23.180;2023-04-08T02:57:51;94501.53;;;5.41;73.29
21395;BME280;10858;42.714;23.180;2023-04-08T03:00:17;94500.44;;;5.31;73.41
21395;BME280;10858;42.714;23.180;2023-04-08T03:02:43;94502.56;;;5.38;73.99
21395;BME280;10858;42.714;23.180;2023-04-08T03:05:10;94500.41;;;5.70;72.81
21395;BME280;10858;42.714;23.180;2023-04-08T03:07:36;94502.06;;;5.85;72.75
21395;BME280;10858;42.714;23.180;2023-04-08T03:10:03;94497.06;;;5.80;72.63
21395;BME280;10858;42.714;23.180;2023-04-08T03:12:29;94496.56;;;5.88;72.47
21395;BME280;10858;42.714;23.180;2023-04-08T03:14:56;94496.13;;;5.94;71.75
21395;BME280;10858;42.714;23.180;2023-04-08T03:17:22;94496.13;;;5.94;72.40
21395;BME280;10858;42.714;23.180;2023-04-08T03:19:48;94498.56;;;5.84;72.68
21395;BME280;10858;42.714;23.180;2023-04-08T03:22:14;94494.31;;;5.82;73.22
21395;BME280;10858;42.714;23.180;2023-04-08T03:24:41;94492.44;;;5.84;72.79
21395;BME280;10858;42.714;23.180;2023-04-08T03:27:07;94488.31;;;5.80;73.22
21395;BME280;10858;42.714;23.180;2023-04-08T03:29:33;94492.81;;;5.65;73.30
21395;BME280;10858;42.714;23.180;2023-04-08T03:32:00;94491.84;;;5.54;73.14
21395;BME280;10858;42.714;23.180;2023-04-08T03:34:26;94493.13;;;5.73;72.88
21395;BME280;10858;42.714;23.180;2023-04-08T03:36:52;94496.94;;;5.82;72.44
21395;BME280;10858;42.714;23.180;2023-04-08T03:39:19;94494.28;;;5.44;74.21
21395;BME280;10858;42.714;23.180;2023-04-08T03:41:45;94502.25;;;5.43;74.64
21395;BME280;10858;42.714;23.180;2023-04-08T03:44:11;94511.38;;;5.25;74.62
21395;BME280;10858;42.714;23.180;2023-04-08T03:46:37;94506.75;;;5.28;75.04
21395;BME280;10858;42.714;23.180;2023-04-08T03:49:03;94496.44;;;5.38;74.09
21395;BME280;10858;42.714;23.180;2023-04-08T03:51:29;94504.94;;;5.68;73.64
21395;BME280;10858;42.714;23.180;2023-04-08T03:53:56;94498.84;;;5.80;72.56
21395;BME280;10858;42.714;23.180;2023-04-08T03:56:22;94504.22;;;5.78;72.39
21395;BME280;10858;42.714;23.180;2023-04-08T03:58:48;94507.31;;;5.46;73.76
21395;BME280;10858;42.714;23.180;2023-04-08T04:01:14;94511.56;;;5.22;74.77
21395;BME280;10858;42.714;23.180;2023-04-08T04:03:40;94506.50;;;5.18;74.74
21395;BME280;10858;42.714;23.180;2023-04-08T04:06:07;94508.28;;;5.18;75.06
21395;BME280;10858;42.714;23.180;2023-04-08T04:08:33;94507.25;;;4.94;75.52
21395;BME280;10858;42.714;23.180;2023-04-08T04:10:59;94508.63;;;4.99;75.67
21395;BME280;10858;42.714;23.180;2023-04-08T04:13:25;94514.47;;;5.04;75.55
21395;BME280;10858;42.714;23.180;2023-04-08T04:15:52;94511.22;;;5.13;75.53
21395;BME280;10858;42.714;23.180;2023-04-08T04:18:18;94514.47;;;5.17;75.63
21395;BME280;10858;42.714;23.180;2023-04-08T04:20:44;94521.28;;;5.34;74.97
21395;BME280;10858;42.714;23.180;2023-04-08T04:23:10;94521.50;;;5.43;74.72
21395;BME280;10858;42.714;23.180;2023-04-08T04:25:39;94520.28;;;5.49;74.22
21395;BME280;10858;42.714;23.180;2023-04-08T04:28:05;94512.09;;;5.66;73.51
21395;BME280;10858;42.714;23.180;2023-04-08T04:30:32;94512.22;;;5.77;73.35
21395;BME280;10858;42.714;23.180;2023-04-08T04:33:01;94519.13;;;6.05;72.56
21395;BME280;10858;42.714;23.180;2023-04-08T04:35:27;94522.06;;;6.00;72.29
21395;BME280;10858;42.714;23.180;2023-04-08T04:37:53;94521.78;;;5.78;73.59
21395;BME280;10858;42.714;23.180;2023-04-08T04:40:19;94521.00;;;6.15;72.27
21395;BME280;10858;42.714;23.180;2023-04-08T04:42:46;94512.34;;;6.26;71.02
21395;BME280;10858;42.714;23.180;2023-04-08T04:45:12;94521.22;;;6.37;70.93
21395;BME280;10858;42.714;23.180;2023-04-08T04:47:39;94523.31;;;6.32;70.65
21395;BME280;10858;42.714;23.180;2023-04-08T04:50:05;94515.41;;;6.45;71.10
21395;BME280;10858;42.714;23.180;2023-04-08T04:52:32;94523.25;;;6.57;70.34
21395;BME280;10858;42.714;23.180;2023-04-08T04:54:58;94522.19;;;6.72;70.08
21395;BME280;10858;42.714;23.180;2023-04-08T04:57:24;94521.75;;;6.78;70.17
21395;BME280;10858;42.714;23.180;2023-04-08T04:59:51;94523.41;;;6.92;69.07
21395;BME280;10858;42.714;23.180;2023-04-08T05:02:17;94526.78;;;7.18;68.07
21395;BME280;10858;42.714;23.180;2023-04-08T05:04:43;94521.47;;;7.30;67.75
21395;BME280;10858;42.714;23.180;2023-04-08T05:07:09;94527.47;;;7.32;67.07
21395;BME280;10858;42.714;23.180;2023-04-08T05:09:35;94526.22;;;7.02;67.22
21395;BME280;10858;42.714;23.180;2023-04-08T05:12:01;94526.13;;;7.50;67.61
21395;BME280;10858;42.714;23.180;2023-04-08T05:14:31;94520.38;;;7.56;65.85
21395;BME280;10858;42.714;23.180;2023-04-08T05:16:58;94534.16;;;7.84;65.05
21395;BME280;10858;42.714;23.180;2023-04-08T05:19:24;94531.47;;;8.07;63.88
21395;BME280;10858;42.714;23.180;2023-04-08T05:21:51;94524.22;;;7.98;62.92
21395;BME280;10858;42.714;23.180;2023-04-08T05:24:17;94529.13;;;8.26;62.40
21395;BME280;10858;42.714;23.180;2023-04-08T05:26:43;94527.53;;;8.24;61.61
21395;BME280;10858;42.714;23.180;2023-04-08T05:29:09;94527.53;;;8.24;62.32
21395;BME280;10858;42.714;23.180;2023-04-08T05:31:36;94529.56;;;8.20;61.77
21395;BME280;10858;42.714;23.180;2023-04-08T05:34:02;94536.38;;;8.91;60.89
21395;BME280;10858;42.714;23.180;2023-04-08T05:36:28;94537.69;;;8.74;60.46
21395;BME280;10858;42.714;23.180;2023-04-08T05:38:55;94531.94;;;8.47;59.61
21395;BME280;10858;42.714;23.180;2023-04-08T05:41:21;94537.09;;;8.48;60.28
21395;BME280;10858;42.714;23.180;2023-04-08T05:43:47;94537.13;;;8.82;58.67
21395;BME280;10858;42.714;23.180;2023-04-08T05:46:13;94535.03;;;9.07;58.85
21395;BME280;10858;42.714;23.180;2023-04-08T05:48:39;94533.69;;;9.13;58.85
21395;BME280;10858;42.714;23.180;2023-04-08T05:51:06;94529.53;;;9.42;57.31
21395;BME280;10858;42.714;23.180;2023-04-08T05:53:32;94530.00;;;9.47;56.76
21395;BME280;10858;42.714;23.180;2023-04-08T05:55:58;94532.94;;;9.22;57.18
21395;BME280;10858;42.714;23.180;2023-04-08T05:58:24;94526.91;;;9.31;58.81
21395;BME280;10858;42.714;23.180;2023-04-08T06:00:50;94527.78;;;9.63;55.41
21395;BME280;10858;42.714;23.180;2023-04-08T06:03:16;94522.66;;;10.03;54.99
21395;BME280;10858;42.714;23.180;2023-04-08T06:05:43;94516.41;;;9.72;55.54
21395;BME280;10858;42.714;23.180;2023-04-08T06:08:09;94526.75;;;10.07;55.80
21395;BME280;10858;42.714;23.180;2023-04-08T06:10:35;94521.72;;;10.04;55.07
21395;BME280;10858;42.714;23.180;2023-04-08T06:13:02;94518.88;;;9.96;55.21
21395;BME280;10858;42.714;23.180;2023-04-08T06:15:28;94520.97;;;9.81;55.21
21395;BME280;10858;42.714;23.180;2023-04-08T06:17:54;94523.56;;;9.61;55.36
21395;BME280;10858;42.714;23.180;2023-04-08T06:20:20;94525.16;;;10.15;54.85
21395;BME280;10858;42.714;23.180;2023-04-08T06:22:47;94521.56;;;10.05;55.64
21395;BME280;10858;42.714;23.180;2023-04-08T06:25:13;94524.22;;;10.05;54.67
21395;BME280;10858;42.714;23.180;2023-04-08T06:27:39;94526.66;;;9.77;55.60
21395;BME280;10858;42.714;23.180;2023-04-08T06:30:06;94523.66;;;9.70;55.24
21395;BME280;10858;42.714;23.180;2023-04-08T06:32:32;94525.75;;;9.87;56.65
21395;BME280;10858;42.714;23.180;2023-04-08T06:34:58;94525.03;;;9.85;55.51
21395;BME280;10858;42.714;23.180;2023-04-08T06:37:24;94533.00;;;9.85;56.08
21395;BME280;10858;42.714;23.180;2023-04-08T06:39:50;94528.28;;;9.89;56.29
21395;BME280;10858;42.714;23.180;2023-04-08T06:42:17;94526.34;;;9.59;56.31
21395;BME280;10858;42.714;23.180;2023-04-08T06:44:43;94524.44;;;9.61;57.16
21395;BME280;10858;42.714;23.180;2023-04-08T06:47:09;94536.25;;;9.46;57.10
21395;BME280;10858;42.714;23.180;2023-04-08T06:49:35;94540.38;;;9.39;58.73
21395;BME280;10858;42.714;23.180;2023-04-08T06:52:02;94535.94;;;9.71;56.04
21395;BME280;10858;42.714;23.180;2023-04-08T06:54:28;94536.19;;;9.68;56.43
21395;BME280;10858;42.714;23.180;2023-04-08T06:56:54;94534.22;;;9.81;56.96
21395;BME280;10858;42.714;23.180;2023-04-08T06:59:20;94542.75;;;10.58;55.40
21395;BME280;10858;42.714;23.180;2023-04-08T07:01:46;94541.72;;;10.28;55.11
21395;BME280;10858;42.714;23.180;2023-04-08T07:04:13;94539.28;;;10.05;55.15
21395;BME280;10858;42.714;23.180;2023-04-08T07:06:39;94538.75;;;10.73;53.77
21395;BME280;10858;42.714;23.180;2023-04-08T07:09:05;94535.56;;;10.79;53.38
21395;BME280;10858;42.714;23.180;2023-04-08T07:11:31;94535.78;;;10.96;53.49
21395;BME280;10858;42.714;23.180;2023-04-08T07:13:58;94543.91;;;11.44;51.89
21395;BME280;10858;42.714;23.180;2023-04-08T07:16:24;94543.13;;;11.72;51.15
21395;BME280;10858;42.714;23.180;2023-04-08T07:18:51;94548.94;;;11.38;51.24
21395;BME280;10858;42.714;23.180;2023-04-08T07:21:17;94552.28;;;11.40;51.24
21395;BME280;10858;42.714;23.180;2023-04-08T07:23:43;94549.03;;;11.85;51.65
21395;BME280;10858;42.714;23.180;2023-04-08T07:26:09;94554.09;;;12.08;50.29
21395;BME280;10858;42.714;23.180;2023-04-08T07:28:35;94550.97;;;12.41;49.73
21395;BME280;10858;42.714;23.180;2023-04-08T07:31:13;94553.63;;;12.60;48.96
21395;BME280;10858;42.714;23.180;2023-04-08T07:33:39;94556.09;;;12.71;48.65
21395;BME280;10858;42.714;23.180;2023-04-08T07:36:05;94555.44;;;12.50;48.99
21395;BME280;10858;42.714;23.180;2023-04-08T07:38:32;94557.97;;;12.51;49.15
21395;BME280;10858;42.714;23.180;2023-04-08T07:40:58;94557.53;;;12.56;48.25
21395;BME280;10858;42.714;23.180;2023-04-08T07:43:24;94563.59;;;12.48;48.43
21395;BME280;10858;42.714;23.180;2023-04-08T07:45:50;94566.59;;;12.82;47.55
21395;BME280;10858;42.714;23.180;2023-04-08T07:48:17;94566.63;;;12.63;47.22
21395;BME280;10858;42.714;23.180;2023-04-08T07:50:43;94573.66;;;11.87;49.40
21395;BME280;10858;42.714;23.180;2023-04-08T07:53:10;94572.84;;;12.16;49.57
21395;BME280;10858;42.714;23.180;2023-04-08T07:55:37;94570.31;;;11.95;50.84
21395;BME280;10858;42.714;23.180;2023-04-08T07:58:05;94580.63;;;11.79;51.62
21395;BME280;10858;42.714;23.180;2023-04-08T08:00:31;94584.28;;;11.87;50.71
21395;BME280;10858;42.714;23.180;2023-04-08T08:02:58;94592.81;;;12.01;50.35
21395;BME280;10858;42.714;23.180;2023-04-08T08:05:24;94603.06;;;12.43;49.18
21395;BME280;10858;42.714;23.180;2023-04-08T08:07:50;94593.81;;;12.19;49.55
21395;BME280;10858;42.714;23.180;2023-04-08T08:10:16;94575.72;;;10.95;53.19
21395;BME280;10858;42.714;23.180;2023-04-08T08:12:43;94562.66;;;10.11;56.93
21395;BME280;10858;42.714;23.180;2023-04-08T08:15:09;94555.78;;;9.77;59.30
21395;BME280;10858;42.714;23.180;2023-04-08T08:17:36;94560.97;;;9.35;60.10
21395;BME280;10858;42.714;23.180;2023-04-08T08:20:02;94567.44;;;9.42;59.28
21395;BME280;10858;42.714;23.180;2023-04-08T08:22:29;94567.31;;;10.39;60.02
21395;BME280;10858;42.714;23.180;2023-04-08T08:24:56;94568.53;;;11.56;56.73
21395;BME280;10858;42.714;23.180;2023-04-08T08:27:23;94575.06;;;11.91;52.62
21395;BME280;10858;42.714;23.180;2023-04-08T08:29:50;94573.63;;;12.73;50.80
21395;BME280;10858;42.714;23.180;2023-04-08T08:32:17;94581.81;;;12.24;50.89
21395;BME280;10858;42.714;23.180;2023-04-08T08:34:43;94571.16;;;11.95;51.17
21395;BME280;10858;42.714;23.180;2023-04-08T08:37:09;94576.47;;;12.34;51.30
21395;BME280;10858;42.714;23.180;2023-04-08T08:39:36;94578.53;;;12.59;49.74
21395;BME280;10858;42.714;23.180;2023-04-08T08:42:02;94577.84;;;12.19;50.39
21395;BME280;10858;42.714;23.180;2023-04-08T08:44:29;94583.69;;;12.79;49.64
21395;BME280;10858;42.714;23.180;2023-04-08T08:46:55;94572.44;;;14.31;47.86
21395;BME280;10858;42.714;23.180;2023-04-08T08:49:22;94577.97;;;15.50;42.57
21395;BME280;10858;42.714;23.180;2023-04-08T08:51:49;94568.63;;;16.03;41.44
21395;BME280;10858;42.714;23.180;2023-04-08T08:54:16;94573.06;;;15.71;41.84
21395;BME280;10858;42.714;23.180;2023-04-08T08:56:42;94572.88;;;15.64;41.12
21395;BME280;10858;42.714;23.180;2023-04-08T08:59:09;94571.13;;;14.96;42.93
21395;BME280;10858;42.714;23.180;2023-04-08T09:01:37;94575.84;;;15.61;41.05
21395;BME280;10858;42.714;23.180;2023-04-08T09:06:37;94583.34;;;13.11;47.41
21395;BME280;10858;42.714;23.180;2023-04-08T09:09:04;94581.81;;;13.73;46.82
21395;BME280;10858;42.714;23.180;2023-04-08T09:11:41;94574.25;;;14.13;46.42
21395;BME280;10858;42.714;23.180;2023-04-08T09:14:19;94582.78;;;14.52;45.61
21395;BME280;10858;42.714;23.180;2023-04-08T09:16:45;94573.38;;;14.65;46.30
21395;BME280;10858;42.714;23.180;2023-04-08T09:19:12;94564.97;;;14.52;45.06
21395;BME280;10858;42.714;23.180;2023-04-08T09:21:38;94572.81;;;14.97;44.95
21395;BME280;10858;42.714;23.180;2023-04-08T09:24:09;94566.41;;;15.75;42.55
21395;BME280;10858;42.714;23.180;2023-04-08T09:26:51;94564.41;;;15.85;42.93
21395;BME280;10858;42.714;23.180;2023-04-08T09:29:17;94563.63;;;15.51;44.19
21395;BME280;10858;42.714;23.180;2023-04-08T09:31:53;94556.34;;;15.09;42.61
21395;BME280;10858;42.714;23.180;2023-04-08T09:34:21;94556.06;;;15.88;43.71
21395;BME280;10858;42.714;23.180;2023-04-08T09:36:52;94548.53;;;15.91;42.36
21395;BME280;10858;42.714;23.180;2023-04-08T09:39:19;94557.72;;;16.87;42.25
21395;BME280;10858;42.714;23.180;2023-04-08T09:41:48;94555.47;;;16.34;41.11
21395;BME280;10858;42.714;23.180;2023-04-08T09:44:17;94549.13;;;16.27;41.51
21395;BME280;10858;42.714;23.180;2023-04-08T09:52:13;94543.41;;;16.06;41.33
21395;BME280;10858;42.714;23.180;2023-04-08T09:57:21;94541.53;;;15.15;43.87
21395;BME280;10858;42.714;23.180;2023-04-08T09:59:59;94537.50;;;15.11;44.82
21395;BME280;10858;42.714;23.180;2023-04-08T10:02:32;94529.47;;;14.85;45.76
21395;BME280;10858;42.714;23.180;2023-04-08T10:05:03;94532.97;;;14.60;45.14
21395;BME280;10858;42.714;23.180;2023-04-08T10:07:30;94519.69;;;14.68;44.48
21395;BME280;10858;42.714;23.180;2023-04-08T10:09:57;94527.06;;;15.33;44.18
21395;BME280;10858;42.714;23.180;2023-04-08T10:12:23;94531.16;;;15.46;43.94
21395;BME280;10858;42.714;23.180;2023-04-08T10:15:24;94525.75;;;15.04;43.69
21395;BME280;10858;42.714;23.180;2023-04-08T10:23:03;94516.91;;;15.71;42.17
21395;BME280;10858;42.714;23.180;2023-04-08T10:25:33;94512.56;;;15.86;42.79
21395;BME280;10858;42.714;23.180;2023-04-08T10:30:54;94517.19;;;17.45;39.01
21395;BME280;10858;42.714;23.180;2023-04-08T10:33:23;94502.72;;;18.68;36.11
21395;BME280;10858;42.714;23.180;2023-04-08T10:35:54;94493.72;;;19.86;37.06
21395;BME280;10858;42.714;23.180;2023-04-08T10:38:24;94490.69;;;19.31;35.35
21395;BME280;10858;42.714;23.180;2023-04-08T10:40:50;94485.63;;;17.63;36.05
21395;BME280;10858;42.714;23.180;2023-04-08T10:43:17;94486.84;;;16.81;39.30
21395;BME280;10858;42.714;23.180;2023-04-08T10:45:44;94482.28;;;15.77;41.87
21395;BME280;10858;42.714;23.180;2023-04-08T10:48:21;94464.38;;;14.86;44.14
21395;BME280;10858;42.714;23.180;2023-04-08T10:53:32;94480.03;;;13.77;45.66
21395;BME280;10858;42.714;23.180;2023-04-08T10:56:14;94483.81;;;13.57;46.32
21395;BME280;10858;42.714;23.180;2023-04-08T10:58:53;94478.44;;;13.67;46.32
21395;BME280;10858;42.714;23.180;2023-04-08T11:01:23;94475.00;;;14.09;45.91
21395;BME280;10858;42.714;23.180;2023-04-08T11:03:49;94475.59;;;14.64;45.26
21395;BME280;10858;42.714;23.180;2023-04-08T11:06:16;94462.72;;;14.60;45.35
21395;BME280;10858;42.714;23.180;2023-04-08T11:08:42;94469.94;;;14.67;45.00
21395;BME280;10858;42.714;23.180;2023-04-08T11:11:13;94469.22;;;15.16;43.53
21395;BME280;10858;42.714;23.180;2023-04-08T11:13:42;94468.09;;;15.27;42.94
21395;BME280;10858;42.714;23.180;2023-04-08T11:16:09;94458.41;;;15.34;42.55
21395;BME280;10858;42.714;23.180;2023-04-08T11:18:39;94466.94;;;14.27;43.48
21395;BME280;10858;42.714;23.180;2023-04-08T11:21:12;94458.47;;;14.49;44.50
21395;BME280;10858;42.714;23.180;2023-04-08T11:23:38;94451.28;;;14.24;44.96
21395;BME280;10858;42.714;23.180;2023-04-08T11:26:07;94447.91;;;14.22;45.80
21395;BME280;10858;42.714;23.180;2023-04-08T11:28:34;94445.09;;;14.23;44.96
21395;BME280;10858;42.714;23.180;2023-04-08T11:31:01;94443.75;;;14.45;44.75
21395;BME280;10858;42.714;23.180;2023-04-08T11:33:31;94431.16;;;15.22;44.21
21395;BME280;10858;42.714;23.180;2023-04-08T11:35:59;94437.66;;;15.86;44.11
21395;BME280;10858;42.714;23.180;2023-04-08T11:38:26;94429.94;;;15.59;41.47
21395;BME280;10858;42.714;23.180;2023-04-08T11:40:53;94435.63;;;15.56;42.66
21395;BME280;10858;42.714;23.180;2023-04-08T11:43:20;94439.16;;;14.55;43.84
21395;BME280;10858;42.714;23.180;2023-04-08T11:45:46;94436.63;;;13.85;44.53
21395;BME280;10858;42.714;23.180;2023-04-08T11:48:14;94439.09;;;14.04;44.81
21395;BME280;10858;42.714;23.180;2023-04-08T11:50:42;94430.66;;;14.08;45.44
21395;BME280;10858;42.714;23.180;2023-04-08T11:53:28;94426.16;;;14.09;44.95
21395;BME280;10858;42.714;23.180;2023-04-08T11:55:54;94427.53;;;14.21;45.37
21395;BME280;10858;42.714;23.180;2023-04-08T11:58:21;94434.19;;;14.17;45.30
21395;BME280;10858;42.714;23.180;2023-04-08T12:00:47;94438.88;;;13.97;45.77
21395;BME280;10858;42.714;23.180;2023-04-08T12:03:14;94431.59;;;13.82;45.71
21395;BME280;10858;42.714;23.180;2023-04-08T12:05:40;94428.91;;;13.82;45.78
21395;BME280;10858;42.714;23.180;2023-04-08T12:08:07;94433.19;;;13.75;45.17
21395;BME280;10858;42.714;23.180;2023-04-08T12:10:33;94427.47;;;12.80;47.67
21395;BME280;10858;42.714;23.180;2023-04-08T12:13:00;94423.47;;;12.94;47.44
21395;BME280;10858;42.714;23.180;2023-04-08T12:15:26;94430.31;;;12.69;49.52
21395;BME280;10858;42.714;23.180;2023-04-08T12:17:52;94429.06;;;12.27;50.90
21395;BME280;10858;42.714;23.180;2023-04-08T12:20:18;94429.97;;;12.08;52.73
21395;BME280;10858;42.714;23.180;2023-04-08T12:22:45;94431.94;;;12.43;50.80
21395;BME280;10858;42.714;23.180;2023-04-08T12:25:11;94430.91;;;13.62;47.39
21395;BME280;10858;42.714;23.180;2023-04-08T12:27:37;94420.91;;;15.60;43.31
21395;BME280;10858;42.714;23.180;2023-04-08T12:30:04;94421.63;;;16.10;41.47
21395;BME280;10858;42.714;23.180;2023-04-08T12:32:30;94421.63;;;16.42;42.82
21395;BME280;10858;42.714;23.180;2023-04-08T12:34:57;94419.59;;;16.60;40.21
21395;BME280;10858;42.714;23.180;2023-04-08T12:37:23;94412.31;;;17.70;37.46
21395;BME280;10858;42.714;23.180;2023-04-08T12:39:49;94407.25;;;18.21;36.14
21395;BME280;10858;42.714;23.180;2023-04-08T12:42:16;94416.13;;;17.76;37.28
21395;BME280;10858;42.714;23.180;2023-04-08T12:44:42;94414.09;;;17.55;37.12
21395;BME280;10858;42.714;23.180;2023-04-08T12:47:08;94425.53;;;18.40;35.94
21395;BME280;10858;42.714;23.180;2023-04-08T12:49:35;94423.31;;;18.51;36.36
21395;BME280;10858;42.714;23.180;2023-04-08T12:52:01;94412.50;;;17.69;36.20
21395;BME280;10858;42.714;23.180;2023-04-08T12:54:28;94425.59;;;16.78;38.98
21395;BME280;10858;42.714;23.180;2023-04-08T12:56:56;94418.44;;;15.74;39.66
21395;BME280;10858;42.714;23.180;2023-04-08T12:59:22;94414.75;;;16.07;41.09
21395;BME280;10858;42.714;23.180;2023-04-08T13:01:48;94416.09;;;15.95;40.03
21395;BME280;10858;42.714;23.180;2023-04-08T13:04:15;94404.56;;;15.71;42.41
21395;BME280;10858;42.714;23.180;2023-04-08T13:06:41;94414.63;;;16.01;41.47
21395;BME280;10858;42.714;23.180;2023-04-08T13:09:08;94405.88;;;16.63;39.81
21395;BME280;10858;42.714;23.180;2023-04-08T13:11:34;94413.59;;;15.94;42.59
21395;BME280;10858;42.714;23.180;2023-04-08T13:14:00;94404.31;;;15.40;42.52
21395;BME280;10858;42.714;23.180;2023-04-08T13:16:27;94415.94;;;16.45;44.09
21395;BME280;10858;42.714;23.180;2023-04-08T13:18:53;94408.34;;;15.44;45.42
21395;BME280;10858;42.714;23.180;2023-04-08T13:21:19;94411.81;;;14.10;50.28
21395;BME280;10858;42.714;23.180;2023-04-08T13:23:45;94413.41;;;14.20;52.19
21395;BME280;10858;42.714;23.180;2023-04-08T13:26:12;94410.16;;;14.09;51.13